Ranger, Texas
Current Conditions -  °F | °C
As of 5:15 PM on Friday 31 Oct 2014 (Local Time) from KBKD Reporting Station
Clear Clear  
Wind Chill: 66°   Ceiling: Unl
Heat Index: 66°   Visibility: 7mi
Dew Point: 34°   Wind: 9mph
Humidity: 30%   Direction: 40°NE
Pressure: 30.32"   Gusts: NA
Location:  32.47°N, 98.68°W
Report Text: KBKD 312215Z AUTO 04008KT 7SM CLR 19/01 A3032 RMK AO2 T01900012
Loading
Personal Weather Stations






























Interactive Weather Map
Tropical Storm Tracking
New forecast layout! Learn more

10-Day Weather Forecast

Advertisements
Track Severe Weather on mobile